CPX263 Details

Departure: Washington Dulles International Airport (KIAD)
Arrival: General Edward Lawrence Logan International Airport (KBOS)
Route: JCOBY3 SWANN BROSS J42 RBV J222 JFK ROBUC3


Current Weather Information
KIAD 212252Z 33009KT 10SM FEW140 BKN250 21/05 A3007 RMK AO2 SLP181 T02060050
KBOS 212254Z 31023G28KT 10SM SCT070 BKN250 19/01 A2986 RMK AO2 PK WND 33030/2222 SLP112 T01890006